Time;durP1;ratioP1;P1;durP2;ratioP2;P2;SDS_P1;SDS_P2;PMS_P1;PMS_P2;Temp;Humidity;BMP_temperature;BMP_pressure;BME280_temperature;BME280_humidity;BME280_pressure;Samples;Min_cycle;Max_cycle;Signal;HPM_P1;HPM_P2
2023/09/05 15:15:19;;;;;;;0.88;0.88;;;;;;;;;;5059844;28;20403;-80
2023/09/05 15:17:44;;;;;;;0.75;0.75;;;;;;;;;;5049793;28;20531;-85
2023/09/05 15:20:10;;;;;;;1.13;0.60;;;;;;;;;;5044015;28;20483;-80
2023/09/05 15:22:36;;;;;;;2.13;1.52;;;;;;;;;;5054609;28;20040;-81
2023/09/05 15:25:16;;;;;;;1.33;1.15;;;;;;;;;;5043440;28;20389;-81
2023/09/05 15:27:43;;;;;;;1.25;1.00;;;;;;;;;;5046100;28;21415;-82
2023/09/05 15:30:11;;;;;;;0.98;0.98;;;;;;;;;;5048726;28;20136;-82
2023/09/05 15:32:37;;;;;;;0.68;0.68;;;;;;;;;;5028157;28;20031;-81
2023/09/05 15:35:03;;;;;;;1.52;1.33;;;;;;;;;;5047578;28;20020;-84
2023/09/05 15:37:29;;;;;;;0.65;0.63;;;;;;;;;;5054648;28;20036;-83
2023/09/05 15:39:54;;;;;;;1.98;1.50;;;;;;;;;;5049278;28;20036;-84
2023/09/05 15:42:20;;;;;;;1.33;0.90;;;;;;;;;;5049233;28;20397;-85
2023/09/05 15:44:45;;;;;;;0.85;0.80;;;;;;;;;;5053000;28;20473;-84
2023/09/05 15:47:11;;;;;;;1.25;0.88;;;;;;;;;;5045690;28;20025;-82
2023/09/05 15:49:36;;;;;;;0.90;0.90;;;;;;;;;;5047876;28;20087;-86
2023/09/05 15:52:03;;;;;;;1.30;1.20;;;;;;;;;;5047463;28;20051;-83
2023/09/05 15:54:30;;;;;;;1.10;1.00;;;;;;;;;;5048572;28;20096;-82
2023/09/05 15:56:56;;;;;;;1.88;1.08;;;;;;;;;;5047345;28;20025;-82
2023/09/05 15:59:21;;;;;;;1.63;1.48;;;;;;;;;;5052412;28;20480;-81
2023/09/05 16:01:47;;;;;;;1.08;0.98;;;;;;;;;;5041340;28;20032;-80
2023/09/05 16:04:12;;;;;;;1.60;1.50;;;;;;;;;;5048413;28;20136;-82
2023/09/05 16:06:38;;;;;;;1.05;0.98;;;;;;;;;;5048359;28;20083;-81
2023/09/05 16:09:03;;;;;;;0.77;0.75;;;;;;;;;;5049328;28;20029;-83
2023/09/05 16:11:29;;;;;;;1.88;1.50;;;;;;;;;;5054841;28;20607;-80
2023/09/05 16:13:54;;;;;;;3.10;1.40;;;;;;;;;;5052255;28;20042;-84
2023/09/05 16:16:20;;;;;;;3.47;2.28;;;;;;;;;;5049270;28;20033;-83
2023/09/05 16:18:45;;;;;;;4.78;2.00;;;;;;;;;;5046138;28;20020;-81
2023/09/05 16:21:14;;;;;;;3.45;1.80;;;;;;;;;;5051272;28;20028;-83
2023/09/05 16:23:41;;;;;;;1.63;1.30;;;;;;;;;;5047828;28;20032;-82
2023/09/05 16:26:07;;;;;;;2.45;1.45;;;;;;;;;;5036245;28;20031;-82
2023/09/05 16:28:32;;;;;;;1.27;1.15;;;;;;;;;;5032485;28;20025;-82
2023/09/05 16:30:58;;;;;;;1.45;1.17;;;;;;;;;;5029620;28;20564;-81
2023/09/05 16:33:30;;;;;;;1.42;1.20;;;;;;;;;;5031178;28;20024;-82
2023/09/05 16:36:06;;;;;;;1.38;1.15;;;;;;;;;;5032391;28;20055;-82
2023/09/05 16:38:34;;;;;;;0.98;0.85;;;;;;;;;;5034026;28;20040;-83
2023/09/05 16:40:59;;;;;;;1.27;1.00;;;;;;;;;;5033356;28;20060;-82
2023/09/05 16:43:25;;;;;;;1.45;1.33;;;;;;;;;;5032178;28;20770;-82
2023/09/05 16:45:53;;;;;;;2.05;1.40;;;;;;;;;;5032934;28;21569;-81
2023/09/05 16:48:24;;;;;;;1.05;0.95;;;;;;;;;;5031546;28;20033;-82
2023/09/05 16:50:49;;;;;;;5.15;1.10;;;;;;;;;;5038376;28;20435;-83
2023/09/05 16:53:15;;;;;;;2.00;1.08;;;;;;;;;;5036167;28;20033;-80
2023/09/05 16:55:40;;;;;;;1.63;1.20;;;;;;;;;;5030519;28;20381;-83
2023/09/05 16:58:06;;;;;;;1.60;1.33;;;;;;;;;;5031063;28;20033;-80
2023/09/05 17:00:39;;;;;;;2.00;1.45;;;;;;;;;;5035036;28;20025;-82
2023/09/05 17:03:05;;;;;;;4.85;2.05;;;;;;;;;;5030973;28;20025;-81
2023/09/05 17:05:31;;;;;;;1.63;1.52;;;;;;;;;;5031277;28;20037;-83
2023/09/05 17:07:56;;;;;;;0.85;0.70;;;;;;;;;;5026450;28;20040;-81
2023/09/05 17:10:22;;;;;;;0.98;0.88;;;;;;;;;;5033139;28;20491;-82
2023/09/05 17:12:47;;;;;;;1.45;1.35;;;;;;;;;;5031185;28;20028;-83
2023/09/05 17:15:13;;;;;;;2.40;1.67;;;;;;;;;;5032418;28;20037;-84
2023/09/05 17:17:38;;;;;;;1.17;0.93;;;;;;;;;;5032853;28;20037;-82
2023/09/05 17:20:04;;;;;;;1.35;1.10;;;;;;;;;;5030851;28;20029;-82
2023/09/05 17:22:29;;;;;;;3.35;1.40;;;;;;;;;;5038009;28;20065;-82
2023/09/05 17:24:55;;;;;;;0.95;0.82;;;;;;;;;;5037799;28;20016;-84
2023/09/05 17:27:20;;;;;;;0.73;0.73;;;;;;;;;;5037517;28;20036;-84
2023/09/05 17:29:47;;;;;;;1.17;1.05;;;;;;;;;;5040536;28;20104;-83
2023/09/05 17:32:13;;;;;;;0.82;0.80;;;;;;;;;;5038522;28;20040;-85
2023/09/05 17:34:38;;;;;;;0.70;0.65;;;;;;;;;;5034750;28;20030;-83
2023/09/05 17:37:06;;;;;;;0.95;0.82;;;;;;;;;;5035744;28;20017;-83
2023/09/05 17:39:32;;;;;;;1.25;1.05;;;;;;;;;;5035684;28;20126;-82
2023/09/05 17:41:58;;;;;;;1.05;0.95;;;;;;;;;;5034696;28;20143;-85
2023/09/05 17:44:27;;;;;;;0.93;0.82;;;;;;;;;;5031385;28;20021;-84
2023/09/05 17:46:52;;;;;;;1.10;1.03;;;;;;;;;;5035495;28;20037;-83
